sensor_id;sensor_type;location;lat;lon;timestamp;P1;durP1;ratioP1;P2;durP2;ratioP2
19219;SDS011;9744;49.364;7.484;2023-10-31T00:00:16;0.90;;;0.75;;
19219;SDS011;9744;49.364;7.484;2023-10-31T00:02:44;1.20;;;0.98;;
19219;SDS011;9744;49.364;7.484;2023-10-31T00:05:11;3.20;;;1.05;;
19219;SDS011;9744;49.364;7.484;2023-10-31T00:07:40;1.17;;;1.08;;
19219;SDS011;9744;49.364;7.484;2023-10-31T00:10:07;7.72;;;1.02;;
19219;SDS011;9744;49.364;7.484;2023-10-31T00:12:35;3.35;;;1.00;;
19219;SDS011;9744;49.364;7.484;2023-10-31T00:15:04;1.58;;;1.02;;
19219;SDS011;9744;49.364;7.484;2023-10-31T00:17:31;1.15;;;1.00;;
19219;SDS011;9744;49.364;7.484;2023-10-31T00:19:59;2.15;;;0.93;;
19219;SDS011;9744;49.364;7.484;2023-10-31T00:22:26;3.05;;;1.00;;
19219;SDS011;9744;49.364;7.484;2023-10-31T00:24:55;1.35;;;1.10;;
19219;SDS011;9744;49.364;7.484;2023-10-31T00:27:23;2.35;;;1.27;;
19219;SDS011;9744;49.364;7.484;2023-10-31T00:29:50;6.22;;;1.30;;
19219;SDS011;9744;49.364;7.484;2023-10-31T00:32:17;3.95;;;1.10;;
19219;SDS011;9744;49.364;7.484;2023-10-31T00:34:44;3.47;;;0.90;;
19219;SDS011;9744;49.364;7.484;2023-10-31T00:37:11;1.85;;;1.20;;
19219;SDS011;9744;49.364;7.484;2023-10-31T00:39:42;2.92;;;1.15;;
19219;SDS011;9744;49.364;7.484;2023-10-31T00:42:15;2.75;;;1.40;;
19219;SDS011;9744;49.364;7.484;2023-10-31T00:44:43;0.95;;;0.90;;
19219;SDS011;9744;49.364;7.484;2023-10-31T00:47:10;1.23;;;1.13;;
19219;SDS011;9744;49.364;7.484;2023-10-31T00:49:38;3.38;;;0.82;;
19219;SDS011;9744;49.364;7.484;2023-10-31T00:52:05;3.13;;;1.30;;
19219;SDS011;9744;49.364;7.484;2023-10-31T00:54:32;2.25;;;1.25;;
19219;SDS011;9744;49.364;7.484;2023-10-31T00:56:59;4.03;;;1.42;;
19219;SDS011;9744;49.364;7.484;2023-10-31T00:59:28;1.92;;;1.58;;
19219;SDS011;9744;49.364;7.484;2023-10-31T01:01:55;7.30;;;1.88;;
19219;SDS011;9744;49.364;7.484;2023-10-31T01:04:22;3.20;;;2.15;;
19219;SDS011;9744;49.364;7.484;2023-10-31T01:06:51;4.15;;;2.20;;
19219;SDS011;9744;49.364;7.484;2023-10-31T01:09:18;5.00;;;2.20;;
19219;SDS011;9744;49.364;7.484;2023-10-31T01:11:45;5.25;;;2.03;;
19219;SDS011;9744;49.364;7.484;2023-10-31T01:14:13;2.53;;;2.00;;
19219;SDS011;9744;49.364;7.484;2023-10-31T01:16:42;2.97;;;1.75;;
19219;SDS011;9744;49.364;7.484;2023-10-31T01:19:10;6.82;;;2.42;;
19219;SDS011;9744;49.364;7.484;2023-10-31T01:21:37;3.35;;;1.80;;
19219;SDS011;9744;49.364;7.484;2023-10-31T01:24:05;2.65;;;1.85;;
19219;SDS011;9744;49.364;7.484;2023-10-31T01:26:33;4.32;;;1.75;;
19219;SDS011;9744;49.364;7.484;2023-10-31T01:29:01;2.95;;;1.70;;
19219;SDS011;9744;49.364;7.484;2023-10-31T01:31:28;3.42;;;2.08;;
19219;SDS011;9744;49.364;7.484;2023-10-31T01:33:57;5.00;;;2.00;;
19219;SDS011;9744;49.364;7.484;2023-10-31T01:36:24;4.10;;;1.98;;
19219;SDS011;9744;49.364;7.484;2023-10-31T01:38:52;2.03;;;1.75;;
19219;SDS011;9744;49.364;7.484;2023-10-31T01:41:19;6.78;;;1.95;;
19219;SDS011;9744;49.364;7.484;2023-10-31T01:43:48;4.40;;;1.52;;
19219;SDS011;9744;49.364;7.484;2023-10-31T01:46:15;2.58;;;1.77;;
19219;SDS011;9744;49.364;7.484;2023-10-31T01:48:42;4.40;;;1.77;;
19219;SDS011;9744;49.364;7.484;2023-10-31T01:51:11;1.95;;;1.50;;
19219;SDS011;9744;49.364;7.484;2023-10-31T01:53:38;1.92;;;1.42;;
19219;SDS011;9744;49.364;7.484;2023-10-31T01:56:09;2.90;;;2.00;;
19219;SDS011;9744;49.364;7.484;2023-10-31T01:58:37;3.30;;;1.58;;
19219;SDS011;9744;49.364;7.484;2023-10-31T08:28:27;11.15;;;3.22;;
19219;SDS011;9744;49.364;7.484;2023-10-31T09:41:13;6.95;;;2.22;;
19219;SDS011;9744;49.364;7.484;2023-10-31T09:43:40;13.55;;;3.38;;
19219;SDS011;9744;49.364;7.484;2023-10-31T09:46:08;9.98;;;2.70;;
19219;SDS011;9744;49.364;7.484;2023-10-31T09:48:38;9.02;;;2.10;;
19219;SDS011;9744;49.364;7.484;2023-10-31T09:51:06;12.90;;;2.40;;
19219;SDS011;9744;49.364;7.484;2023-10-31T09:53:34;22.00;;;2.80;;
19219;SDS011;9744;49.364;7.484;2023-10-31T09:56:05;16.13;;;2.85;;
19219;SDS011;9744;49.364;7.484;2023-10-31T09:58:35;13.70;;;4.35;;
19219;SDS011;9744;49.364;7.484;2023-10-31T10:01:04;10.95;;;2.28;;
19219;SDS011;9744;49.364;7.484;2023-10-31T10:03:31;8.25;;;2.80;;
19219;SDS011;9744;49.364;7.484;2023-10-31T10:05:59;16.67;;;2.60;;
19219;SDS011;9744;49.364;7.484;2023-10-31T10:08:28;11.88;;;2.88;;
19219;SDS011;9744;49.364;7.484;2023-10-31T10:25:40;8.55;;;2.25;;
19219;SDS011;9744;49.364;7.484;2023-10-31T10:28:11;7.72;;;2.03;;
19219;SDS011;9744;49.364;7.484;2023-10-31T10:30:39;10.38;;;2.20;;
19219;SDS011;9744;49.364;7.484;2023-10-31T10:33:07;9.90;;;3.03;;
19219;SDS011;9744;49.364;7.484;2023-10-31T10:35:34;6.70;;;2.95;;
19219;SDS011;9744;49.364;7.484;2023-10-31T10:38:03;7.60;;;2.83;;
19219;SDS011;9744;49.364;7.484;2023-10-31T10:40:38;15.68;;;3.40;;
19219;SDS011;9744;49.364;7.484;2023-10-31T10:43:11;28.90;;;3.97;;
19219;SDS011;9744;49.364;7.484;2023-10-31T10:45:43;8.55;;;3.42;;
19219;SDS011;9744;49.364;7.484;2023-10-31T10:48:11;9.90;;;2.90;;
19219;SDS011;9744;49.364;7.484;2023-10-31T10:50:41;12.65;;;2.60;;
19219;SDS011;9744;49.364;7.484;2023-10-31T10:53:13;11.65;;;2.45;;
19219;SDS011;9744;49.364;7.484;2023-10-31T10:55:51;10.10;;;2.30;;
19219;SDS011;9744;49.364;7.484;2023-10-31T10:58:21;7.35;;;2.08;;
19219;SDS011;9744;49.364;7.484;2023-10-31T11:00:59;9.05;;;2.20;;
19219;SDS011;9744;49.364;7.484;2023-10-31T11:03:28;12.57;;;2.58;;
19219;SDS011;9744;49.364;7.484;2023-10-31T11:05:56;8.82;;;2.00;;
19219;SDS011;9744;49.364;7.484;2023-10-31T11:08:23;7.32;;;2.03;;
19219;SDS011;9744;49.364;7.484;2023-10-31T11:10:53;7.43;;;2.80;;
19219;SDS011;9744;49.364;7.484;2023-10-31T11:13:22;8.30;;;2.40;;
19219;SDS011;9744;49.364;7.484;2023-10-31T11:15:51;5.95;;;1.80;;
19219;SDS011;9744;49.364;7.484;2023-10-31T11:18:22;6.90;;;1.92;;
19219;SDS011;9744;49.364;7.484;2023-10-31T11:20:51;3.67;;;1.60;;
19219;SDS011;9744;49.364;7.484;2023-10-31T11:23:19;5.38;;;2.08;;
19219;SDS011;9744;49.364;7.484;2023-10-31T11:25:49;11.85;;;2.38;;
19219;SDS011;9744;49.364;7.484;2023-10-31T11:28:20;4.95;;;1.88;;
19219;SDS011;9744;49.364;7.484;2023-10-31T11:30:48;8.70;;;2.08;;
19219;SDS011;9744;49.364;7.484;2023-10-31T11:33:16;8.77;;;2.92;;
19219;SDS011;9744;49.364;7.484;2023-10-31T11:35:49;11.93;;;2.10;;
19219;SDS011;9744;49.364;7.484;2023-10-31T11:38:17;5.15;;;1.33;;
19219;SDS011;9744;49.364;7.484;2023-10-31T11:40:59;9.35;;;2.17;;
19219;SDS011;9744;49.364;7.484;2023-10-31T11:43:36;6.53;;;1.40;;
19219;SDS011;9744;49.364;7.484;2023-10-31T11:46:18;5.75;;;1.27;;
19219;SDS011;9744;49.364;7.484;2023-10-31T11:48:48;3.33;;;1.83;;
19219;SDS011;9744;49.364;7.484;2023-10-31T11:51:17;6.72;;;0.98;;
19219;SDS011;9744;49.364;7.484;2023-10-31T11:53:44;6.70;;;1.40;;
19219;SDS011;9744;49.364;7.484;2023-10-31T11:56:18;7.53;;;1.63;;
19219;SDS011;9744;49.364;7.484;2023-10-31T11:58:55;7.38;;;1.10;;
19219;SDS011;9744;49.364;7.484;2023-10-31T12:01:23;5.40;;;1.08;;
19219;SDS011;9744;49.364;7.484;2023-10-31T12:03:51;5.38;;;1.50;;
19219;SDS011;9744;49.364;7.484;2023-10-31T12:06:18;3.67;;;1.40;;
19219;SDS011;9744;49.364;7.484;2023-10-31T12:11:17;5.93;;;1.10;;
19219;SDS011;9744;49.364;7.484;2023-10-31T12:13:54;4.88;;;1.30;;
19219;SDS011;9744;49.364;7.484;2023-10-31T12:16:25;6.65;;;1.30;;
19219;SDS011;9744;49.364;7.484;2023-10-31T12:18:54;9.00;;;1.92;;
19219;SDS011;9744;49.364;7.484;2023-10-31T12:24:07;3.15;;;1.48;;
19219;SDS011;9744;49.364;7.484;2023-10-31T12:26:36;6.63;;;1.50;;
19219;SDS011;9744;49.364;7.484;2023-10-31T12:29:12;6.03;;;1.52;;
19219;SDS011;9744;49.364;7.484;2023-10-31T12:31:44;8.88;;;1.63;;
19219;SDS011;9744;49.364;7.484;2023-10-31T12:34:13;4.30;;;1.67;;
19219;SDS011;9744;49.364;7.484;2023-10-31T12:36:41;5.50;;;1.63;;
19219;SDS011;9744;49.364;7.484;2023-10-31T12:39:11;6.18;;;1.50;;
19219;SDS011;9744;49.364;7.484;2023-10-31T12:41:39;6.03;;;1.35;;
19219;SDS011;9744;49.364;7.484;2023-10-31T12:44:07;5.88;;;1.45;;
19219;SDS011;9744;49.364;7.484;2023-10-31T12:46:38;5.75;;;1.40;;
19219;SDS011;9744;49.364;7.484;2023-10-31T12:49:10;4.97;;;1.73;;
19219;SDS011;9744;49.364;7.484;2023-10-31T12:51:40;5.10;;;1.20;;
19219;SDS011;9744;49.364;7.484;2023-10-31T12:54:26;4.25;;;1.10;;
19219;SDS011;9744;49.364;7.484;2023-10-31T12:56:57;5.82;;;1.10;;
19219;SDS011;9744;49.364;7.484;2023-10-31T12:59:26;6.20;;;0.80;;
19219;SDS011;9744;49.364;7.484;2023-10-31T13:01:54;3.70;;;0.82;;
19219;SDS011;9744;49.364;7.484;2023-10-31T13:04:25;6.72;;;1.10;;
19219;SDS011;9744;49.364;7.484;2023-10-31T13:06:59;5.55;;;1.17;;
19219;SDS011;9744;49.364;7.484;2023-10-31T13:09:29;6.00;;;1.17;;
19219;SDS011;9744;49.364;7.484;2023-10-31T13:11:57;8.88;;;1.25;;
19219;SDS011;9744;49.364;7.484;2023-10-31T13:14:26;5.63;;;0.85;;
19219;SDS011;9744;49.364;7.484;2023-10-31T13:16:55;7.32;;;0.75;;
19219;SDS011;9744;49.364;7.484;2023-10-31T13:19:23;4.30;;;1.13;;
19219;SDS011;9744;49.364;7.484;2023-10-31T13:21:50;2.75;;;0.80;;
19219;SDS011;9744;49.364;7.484;2023-10-31T13:24:18;5.72;;;1.00;;
19219;SDS011;9744;49.364;7.484;2023-10-31T13:26:45;6.55;;;1.25;;
19219;SDS011;9744;49.364;7.484;2023-10-31T13:29:16;1.60;;;0.65;;
19219;SDS011;9744;49.364;7.484;2023-10-31T13:31:44;3.20;;;0.80;;
19219;SDS011;9744;49.364;7.484;2023-10-31T13:34:13;7.03;;;1.05;;
19219;SDS011;9744;49.364;7.484;2023-10-31T13:36:40;4.53;;;0.98;;
19219;SDS011;9744;49.364;7.484;2023-10-31T13:39:09;6.18;;;1.42;;
19219;SDS011;9744;49.364;7.484;2023-10-31T13:41:36;5.63;;;0.70;;
19219;SDS011;9744;49.364;7.484;2023-10-31T13:44:04;4.65;;;1.00;;
19219;SDS011;9744;49.364;7.484;2023-10-31T13:46:33;2.60;;;0.60;;
19219;SDS011;9744;49.364;7.484;2023-10-31T13:49:01;9.38;;;1.95;;
19219;SDS011;9744;49.364;7.484;2023-10-31T13:51:30;3.92;;;1.38;;
19219;SDS011;9744;49.364;7.484;2023-10-31T13:53:57;4.72;;;0.57;;
19219;SDS011;9744;49.364;7.484;2023-10-31T13:56:25;3.30;;;0.50;;
19219;SDS011;9744;49.364;7.484;2023-10-31T13:58:52;5.00;;;0.77;;
19219;SDS011;9744;49.364;7.484;2023-10-31T14:01:19;5.22;;;1.27;;
19219;SDS011;9744;49.364;7.484;2023-10-31T14:03:50;2.70;;;0.70;;
19219;SDS011;9744;49.364;7.484;2023-10-31T14:06:17;3.67;;;0.63;;
19219;SDS011;9744;49.364;7.484;2023-10-31T14:08:46;6.15;;;0.93;;
19219;SDS011;9744;49.364;7.484;2023-10-31T14:11:13;7.57;;;1.20;;
19219;SDS011;9744;49.364;7.484;2023-10-31T14:13:40;3.08;;;0.73;;
19219;SDS011;9744;49.364;7.484;2023-10-31T14:16:10;8.23;;;1.30;;
19219;SDS011;9744;49.364;7.484;2023-10-31T14:18:38;2.25;;;0.90;;
19219;SDS011;9744;49.364;7.484;2023-10-31T14:21:06;3.88;;;0.82;;
19219;SDS011;9744;49.364;7.484;2023-10-31T14:23:33;5.43;;;1.48;;
19219;SDS011;9744;49.364;7.484;2023-10-31T14:26:02;4.50;;;1.45;;
19219;SDS011;9744;49.364;7.484;2023-10-31T14:28:33;3.85;;;0.75;;
19219;SDS011;9744;49.364;7.484;2023-10-31T14:31:00;5.20;;;0.85;;
19219;SDS011;9744;49.364;7.484;2023-10-31T14:33:27;3.17;;;1.70;;
19219;SDS011;9744;49.364;7.484;2023-10-31T14:35:56;2.88;;;0.80;;
19219;SDS011;9744;49.364;7.484;2023-10-31T14:38:23;5.20;;;0.75;;
19219;SDS011;9744;49.364;7.484;2023-10-31T14:40:50;4.47;;;1.70;;
19219;SDS011;9744;49.364;7.484;2023-10-31T14:43:19;4.30;;;0.70;;
19219;SDS011;9744;49.364;7.484;2023-10-31T14:45:46;2.95;;;1.05;;
19219;SDS011;9744;49.364;7.484;2023-10-31T14:48:13;1.35;;;0.73;;
19219;SDS011;9744;49.364;7.484;2023-10-31T14:50:40;3.47;;;2.03;;
19219;SDS011;9744;49.364;7.484;2023-10-31T14:53:07;4.53;;;1.60;;
19219;SDS011;9744;49.364;7.484;2023-10-31T14:55:36;5.68;;;1.15;;
19219;SDS011;9744;49.364;7.484;2023-10-31T14:58:04;3.17;;;1.40;;
19219;SDS011;9744;49.364;7.484;2023-10-31T15:00:34;9.07;;;1.70;;
19219;SDS011;9744;49.364;7.484;2023-10-31T15:03:02;5.75;;;2.22;;
19219;SDS011;9744;49.364;7.484;2023-10-31T15:05:30;4.38;;;1.75;;
19219;SDS011;9744;49.364;7.484;2023-10-31T15:07:57;2.97;;;2.47;;
19219;SDS011;9744;49.364;7.484;2023-10-31T15:10:25;8.40;;;3.75;;
19219;SDS011;9744;49.364;7.484;2023-10-31T15:12:53;3.10;;;1.80;;
19219;SDS011;9744;49.364;7.484;2023-10-31T15:15:22;3.58;;;1.85;;
19219;SDS011;9744;49.364;7.484;2023-10-31T15:17:51;7.97;;;3.03;;
19219;SDS011;9744;49.364;7.484;2023-10-31T15:20:18;8.45;;;2.40;;
19219;SDS011;9744;49.364;7.484;2023-10-31T15:22:46;7.30;;;2.63;;
19219;SDS011;9744;49.364;7.484;2023-10-31T15:25:14;7.75;;;3.28;;
19219;SDS011;9744;49.364;7.484;2023-10-31T15:27:42;4.75;;;1.48;;
19219;SDS011;9744;49.364;7.484;2023-10-31T15:30:09;11.73;;;2.55;;
19219;SDS011;9744;49.364;7.484;2023-10-31T15:32:37;3.22;;;1.25;;
19219;SDS011;9744;49.364;7.484;2023-10-31T15:35:06;4.50;;;0.95;;
19219;SDS011;9744;49.364;7.484;2023-10-31T15:37:35;5.07;;;2.65;;
19219;SDS011;9744;49.364;7.484;2023-10-31T15:40:03;6.53;;;1.02;;
19219;SDS011;9744;49.364;7.484;2023-10-31T15:42:31;4.70;;;1.95;;
19219;SDS011;9744;49.364;7.484;2023-10-31T15:44:58;7.65;;;2.67;;
19219;SDS011;9744;49.364;7.484;2023-10-31T15:47:26;9.63;;;2.80;;
19219;SDS011;9744;49.364;7.484;2023-10-31T15:49:53;3.97;;;1.48;;
19219;SDS011;9744;49.364;7.484;2023-10-31T15:52:21;2.25;;;0.93;;
19219;SDS011;9744;49.364;7.484;2023-10-31T15:54:49;10.70;;;2.40;;
19219;SDS011;9744;49.364;7.484;2023-10-31T15:57:17;2.20;;;1.02;;
19219;SDS011;9744;49.364;7.484;2023-10-31T15:59:47;4.20;;;1.25;;
19219;SDS011;9744;49.364;7.484;2023-10-31T16:02:14;4.13;;;2.00;;
19219;SDS011;9744;49.364;7.484;2023-10-31T16:04:42;6.22;;;2.60;;
19219;SDS011;9744;49.364;7.484;2023-10-31T16:07:11;8.90;;;2.00;;
19219;SDS011;9744;49.364;7.484;2023-10-31T16:09:40;6.55;;;2.60;;
19219;SDS011;9744;49.364;7.484;2023-10-31T16:12:07;6.03;;;2.78;;
19219;SDS011;9744;49.364;7.484;2023-10-31T16:14:35;7.50;;;3.30;;
19219;SDS011;9744;49.364;7.484;2023-10-31T16:17:03;8.77;;;3.35;;
19219;SDS011;9744;49.364;7.484;2023-10-31T16:19:30;8.15;;;3.42;;
19219;SDS011;9744;49.364;7.484;2023-10-31T16:21:57;9.55;;;3.03;;
19219;SDS011;9744;49.364;7.484;2023-10-31T16:24:25;8.98;;;2.20;;
19219;SDS011;9744;49.364;7.484;2023-10-31T16:26:53;9.30;;;2.95;;
19219;SDS011;9744;49.364;7.484;2023-10-31T16:29:20;13.00;;;5.20;;
19219;SDS011;9744;49.364;7.484;2023-10-31T16:31:48;11.35;;;4.30;;
19219;SDS011;9744;49.364;7.484;2023-10-31T16:34:15;9.02;;;3.13;;
19219;SDS011;9744;49.364;7.484;2023-10-31T16:36:43;10.65;;;3.28;;
19219;SDS011;9744;49.364;7.484;2023-10-31T16:39:10;9.60;;;2.40;;
19219;SDS011;9744;49.364;7.484;2023-10-31T16:41:37;5.00;;;1.95;;
19219;SDS011;9744;49.364;7.484;2023-10-31T16:44:06;4.03;;;1.98;;
19219;SDS011;9744;49.364;7.484;2023-10-31T16:46:33;7.15;;;1.65;;
19219;SDS011;9744;49.364;7.484;2023-10-31T16:49:00;10.32;;;1.50;;
19219;SDS011;9744;49.364;7.484;2023-10-31T16:51:28;6.30;;;1.50;;
19219;SDS011;9744;49.364;7.484;2023-10-31T16:53:55;6.57;;;1.67;;
19219;SDS011;9744;49.364;7.484;2023-10-31T16:56:23;5.65;;;1.95;;
19219;SDS011;9744;49.364;7.484;2023-10-31T16:58:50;11.30;;;2.03;;
19219;SDS011;9744;49.364;7.484;2023-10-31T17:01:19;7.13;;;2.05;;
19219;SDS011;9744;49.364;7.484;2023-10-31T17:03:46;4.40;;;1.50;;
19219;SDS011;9744;49.364;7.484;2023-10-31T17:06:13;7.65;;;2.42;;
19219;SDS011;9744;49.364;7.484;2023-10-31T17:08:41;18.45;;;4.22;;
19219;SDS011;9744;49.364;7.484;2023-10-31T17:11:08;9.98;;;2.50;;
19219;SDS011;9744;49.364;7.484;2023-10-31T17:13:35;9.15;;;2.15;;
19219;SDS011;9744;49.364;7.484;2023-10-31T17:16:05;10.63;;;1.67;;
19219;SDS011;9744;49.364;7.484;2023-10-31T17:18:35;5.50;;;1.80;;
19219;SDS011;9744;49.364;7.484;2023-10-31T17:21:02;10.65;;;2.55;;
19219;SDS011;9744;49.364;7.484;2023-10-31T17:23:29;12.90;;;3.97;;
19219;SDS011;9744;49.364;7.484;2023-10-31T17:25:57;7.13;;;2.97;;
19219;SDS011;9744;49.364;7.484;2023-10-31T17:28:24;6.47;;;2.50;;
19219;SDS011;9744;49.364;7.484;2023-10-31T17:30:52;10.45;;;2.72;;
19219;SDS011;9744;49.364;7.484;2023-10-31T17:33:19;7.60;;;2.08;;
19219;SDS011;9744;49.364;7.484;2023-10-31T17:35:48;7.65;;;2.25;;
19219;SDS011;9744;49.364;7.484;2023-10-31T17:38:15;9.77;;;2.95;;
19219;SDS011;9744;49.364;7.484;2023-10-31T17:40:46;7.30;;;2.72;;
19219;SDS011;9744;49.364;7.484;2023-10-31T17:43:15;12.05;;;2.50;;
19219;SDS011;9744;49.364;7.484;2023-10-31T17:45:42;8.18;;;3.55;;
19219;SDS011;9744;49.364;7.484;2023-10-31T17:48:10;6.85;;;2.42;;
19219;SDS011;9744;49.364;7.484;2023-10-31T17:50:37;7.40;;;2.90;;
19219;SDS011;9744;49.364;7.484;2023-10-31T17:53:06;4.28;;;1.98;;
19219;SDS011;9744;49.364;7.484;2023-10-31T17:55:33;11.30;;;1.92;;
19219;SDS011;9744;49.364;7.484;2023-10-31T17:58:00;6.60;;;1.90;;
19219;SDS011;9744;49.364;7.484;2023-10-31T18:00:28;5.85;;;1.95;;
19219;SDS011;9744;49.364;7.484;2023-10-31T18:02:55;9.85;;;1.98;;
19219;SDS011;9744;49.364;7.484;2023-10-31T18:05:23;7.30;;;1.90;;
19219;SDS011;9744;49.364;7.484;2023-10-31T18:07:50;10.57;;;2.08;;
19219;SDS011;9744;49.364;7.484;2023-10-31T18:10:19;6.38;;;1.85;;
19219;SDS011;9744;49.364;7.484;2023-10-31T18:12:47;8.88;;;2.15;;
19219;SDS011;9744;49.364;7.484;2023-10-31T18:15:16;11.27;;;2.78;;
19219;SDS011;9744;49.364;7.484;2023-10-31T18:17:44;6.03;;;2.28;;
19219;SDS011;9744;49.364;7.484;2023-10-31T18:20:11;9.63;;;2.47;;
19219;SDS011;9744;49.364;7.484;2023-10-31T18:22:39;11.98;;;4.30;;
19219;SDS011;9744;49.364;7.484;2023-10-31T18:25:06;5.60;;;2.97;;
19219;SDS011;9744;49.364;7.484;2023-10-31T18:27:37;8.18;;;3.55;;
19219;SDS011;9744;49.364;7.484;2023-10-31T18:30:06;6.40;;;2.33;;
19219;SDS011;9744;49.364;7.484;2023-10-31T18:32:33;8.23;;;2.45;;
19219;SDS011;9744;49.364;7.484;2023-10-31T18:35:01;9.90;;;2.30;;
19219;SDS011;9744;49.364;7.484;2023-10-31T18:37:28;9.57;;;2.50;;
19219;SDS011;9744;49.364;7.484;2023-10-31T18:39:59;5.15;;;3.40;;
19219;SDS011;9744;49.364;7.484;2023-10-31T18:42:34;4.93;;;2.63;;
19219;SDS011;9744;49.364;7.484;2023-10-31T18:45:04;10.25;;;3.65;;
19219;SDS011;9744;49.364;7.484;2023-10-31T18:47:32;10.90;;;3.58;;
19219;SDS011;9744;49.364;7.484;2023-10-31T18:49:59;6.63;;;3.15;;
19219;SDS011;9744;49.364;7.484;2023-10-31T18:52:26;7.78;;;2.65;;
19219;SDS011;9744;49.364;7.484;2023-10-31T18:54:54;5.53;;;3.17;;
19219;SDS011;9744;49.364;7.484;2023-10-31T18:57:25;7.82;;;3.10;;
19219;SDS011;9744;49.364;7.484;2023-10-31T18:59:55;9.60;;;3.10;;
19219;SDS011;9744;49.364;7.484;2023-10-31T19:02:23;6.18;;;2.58;;
19219;SDS011;9744;49.364;7.484;2023-10-31T19:04:51;10.68;;;2.95;;
19219;SDS011;9744;49.364;7.484;2023-10-31T19:07:19;5.55;;;2.00;;
19219;SDS011;9744;49.364;7.484;2023-10-31T19:09:46;9.55;;;3.05;;
19219;SDS011;9744;49.364;7.484;2023-10-31T19:12:13;9.45;;;3.15;;
19219;SDS011;9744;49.364;7.484;2023-10-31T19:14:41;7.90;;;3.20;;
19219;SDS011;9744;49.364;7.484;2023-10-31T19:17:08;8.60;;;3.28;;
19219;SDS011;9744;49.364;7.484;2023-10-31T19:19:36;9.95;;;3.33;;
19219;SDS011;9744;49.364;7.484;2023-10-31T19:22:04;7.32;;;3.10;;
19219;SDS011;9744;49.364;7.484;2023-10-31T19:24:31;6.47;;;2.50;;
19219;SDS011;9744;49.364;7.484;2023-10-31T19:26:58;6.32;;;2.80;;
19219;SDS011;9744;49.364;7.484;2023-10-31T19:29:25;6.32;;;2.97;;
19219;SDS011;9744;49.364;7.484;2023-10-31T19:31:53;7.15;;;2.95;;
19219;SDS011;9744;49.364;7.484;2023-10-31T19:34:20;10.32;;;2.90;;
19219;SDS011;9744;49.364;7.484;2023-10-31T19:36:48;7.80;;;2.70;;
19219;SDS011;9744;49.364;7.484;2023-10-31T19:39:15;5.18;;;2.47;;
19219;SDS011;9744;49.364;7.484;2023-10-31T19:41:44;4.85;;;1.92;;
19219;SDS011;9744;49.364;7.484;2023-10-31T19:44:12;6.03;;;2.80;;
19219;SDS011;9744;49.364;7.484;2023-10-31T19:46:39;5.72;;;2.30;;
19219;SDS011;9744;49.364;7.484;2023-10-31T19:49:07;12.00;;;2.95;;
19219;SDS011;9744;49.364;7.484;2023-10-31T19:51:34;8.27;;;2.65;;
19219;SDS011;9744;49.364;7.484;2023-10-31T19:54:02;5.40;;;2.10;;
19219;SDS011;9744;49.364;7.484;2023-10-31T19:56:30;8.73;;;2.55;;
19219;SDS011;9744;49.364;7.484;2023-10-31T19:58:57;10.23;;;2.67;;
19219;SDS011;9744;49.364;7.484;2023-10-31T20:01:25;7.45;;;2.42;;
19219;SDS011;9744;49.364;7.484;2023-10-31T20:03:53;6.97;;;2.83;;
19219;SDS011;9744;49.364;7.484;2023-10-31T20:06:21;7.75;;;2.42;;
19219;SDS011;9744;49.364;7.484;2023-10-31T20:08:49;6.72;;;2.10;;
19219;SDS011;9744;49.364;7.484;2023-10-31T20:11:17;7.53;;;2.22;;
19219;SDS011;9744;49.364;7.484;2023-10-31T20:13:45;12.85;;;3.03;;
19219;SDS011;9744;49.364;7.484;2023-10-31T20:16:14;14.88;;;3.95;;
19219;SDS011;9744;49.364;7.484;2023-10-31T20:18:43;8.05;;;2.70;;
19219;SDS011;9744;49.364;7.484;2023-10-31T20:21:10;7.07;;;2.60;;
19219;SDS011;9744;49.364;7.484;2023-10-31T20:23:37;16.25;;;2.85;;
19219;SDS011;9744;49.364;7.484;2023-10-31T20:26:06;8.23;;;2.80;;
19219;SDS011;9744;49.364;7.484;2023-10-31T20:28:35;7.30;;;2.80;;
19219;SDS011;9744;49.364;7.484;2023-10-31T20:31:05;9.70;;;3.60;;
19219;SDS011;9744;49.364;7.484;2023-10-31T20:33:33;10.38;;;3.35;;
19219;SDS011;9744;49.364;7.484;2023-10-31T20:36:00;10.77;;;4.05;;
19219;SDS011;9744;49.364;7.484;2023-10-31T20:38:27;10.68;;;4.10;;
19219;SDS011;9744;49.364;7.484;2023-10-31T20:40:55;10.80;;;4.75;;
19219;SDS011;9744;49.364;7.484;2023-10-31T20:43:22;19.70;;;4.50;;
19219;SDS011;9744;49.364;7.484;2023-10-31T20:45:51;15.32;;;3.92;;
19219;SDS011;9744;49.364;7.484;2023-10-31T20:48:18;8.90;;;3.88;;
19219;SDS011;9744;49.364;7.484;2023-10-31T20:50:45;9.27;;;3.53;;
19219;SDS011;9744;49.364;7.484;2023-10-31T20:53:12;9.95;;;3.50;;
19219;SDS011;9744;49.364;7.484;2023-10-31T20:55:40;11.70;;;3.50;;
19219;SDS011;9744;49.364;7.484;2023-10-31T20:58:07;12.82;;;3.58;;
19219;SDS011;9744;49.364;7.484;2023-10-31T21:00:35;8.90;;;3.50;;
19219;SDS011;9744;49.364;7.484;2023-10-31T21:03:04;14.13;;;3.97;;
19219;SDS011;9744;49.364;7.484;2023-10-31T21:05:33;7.75;;;3.20;;
19219;SDS011;9744;49.364;7.484;2023-10-31T21:08:00;15.70;;;3.92;;
19219;SDS011;9744;49.364;7.484;2023-10-31T21:10:28;10.90;;;3.42;;
19219;SDS011;9744;49.364;7.484;2023-10-31T21:12:56;12.30;;;3.88;;
19219;SDS011;9744;49.364;7.484;2023-10-31T21:15:23;9.80;;;3.53;;
19219;SDS011;9744;49.364;7.484;2023-10-31T21:17:50;7.47;;;3.47;;
19219;SDS011;9744;49.364;7.484;2023-10-31T21:20:19;14.93;;;3.88;;
19219;SDS011;9744;49.364;7.484;2023-10-31T21:22:46;11.45;;;3.50;;
19219;SDS011;9744;49.364;7.484;2023-10-31T21:25:14;6.63;;;3.80;;
19219;SDS011;9744;49.364;7.484;2023-10-31T21:27:41;10.73;;;4.35;;
19219;SDS011;9744;49.364;7.484;2023-10-31T21:30:14;14.90;;;3.45;;
19219;SDS011;9744;49.364;7.484;2023-10-31T21:32:41;9.90;;;3.30;;
19219;SDS011;9744;49.364;7.484;2023-10-31T21:35:09;10.50;;;3.15;;
19219;SDS011;9744;49.364;7.484;2023-10-31T21:37:40;9.77;;;3.15;;
19219;SDS011;9744;49.364;7.484;2023-10-31T21:40:09;10.48;;;3.20;;
19219;SDS011;9744;49.364;7.484;2023-10-31T21:42:36;7.25;;;2.72;;
19219;SDS011;9744;49.364;7.484;2023-10-31T21:45:04;17.67;;;3.10;;
19219;SDS011;9744;49.364;7.484;2023-10-31T21:47:32;11.27;;;2.70;;
19219;SDS011;9744;49.364;7.484;2023-10-31T21:49:59;9.55;;;3.00;;
19219;SDS011;9744;49.364;7.484;2023-10-31T21:52:26;11.32;;;2.85;;
19219;SDS011;9744;49.364;7.484;2023-10-31T21:54:56;7.93;;;2.40;;
19219;SDS011;9744;49.364;7.484;2023-10-31T21:57:23;11.43;;;3.92;;
19219;SDS011;9744;49.364;7.484;2023-10-31T21:59:50;16.23;;;3.80;;
19219;SDS011;9744;49.364;7.484;2023-10-31T22:02:18;11.52;;;2.78;;
19219;SDS011;9744;49.364;7.484;2023-10-31T22:04:45;10.20;;;4.00;;
19219;SDS011;9744;49.364;7.484;2023-10-31T22:07:12;9.43;;;2.80;;
19219;SDS011;9744;49.364;7.484;2023-10-31T22:09:39;11.13;;;2.63;;
19219;SDS011;9744;49.364;7.484;2023-10-31T22:12:08;11.23;;;2.60;;
19219;SDS011;9744;49.364;7.484;2023-10-31T22:14:35;8.88;;;2.45;;
19219;SDS011;9744;49.364;7.484;2023-10-31T22:17:02;7.55;;;2.45;;
19219;SDS011;9744;49.364;7.484;2023-10-31T22:19:30;8.07;;;2.40;;
19219;SDS011;9744;49.364;7.484;2023-10-31T22:21:57;6.30;;;3.30;;
19219;SDS011;9744;49.364;7.484;2023-10-31T22:24:24;7.18;;;2.97;;
19219;SDS011;9744;49.364;7.484;2023-10-31T22:26:51;9.05;;;2.83;;
19219;SDS011;9744;49.364;7.484;2023-10-31T22:29:20;11.35;;;2.70;;
19219;SDS011;9744;49.364;7.484;2023-10-31T22:31:47;7.75;;;2.90;;
19219;SDS011;9744;49.364;7.484;2023-10-31T22:34:22;8.70;;;2.55;;
19219;SDS011;9744;49.364;7.484;2023-10-31T22:36:50;11.82;;;3.05;;
19219;SDS011;9744;49.364;7.484;2023-10-31T22:39:19;13.48;;;4.32;;
19219;SDS011;9744;49.364;7.484;2023-10-31T22:41:47;10.18;;;3.15;;
19219;SDS011;9744;49.364;7.484;2023-10-31T22:44:14;14.60;;;3.97;;
19219;SDS011;9744;49.364;7.484;2023-10-31T22:46:43;11.68;;;3.35;;
19219;SDS011;9744;49.364;7.484;2023-10-31T22:49:10;11.93;;;3.00;;
19219;SDS011;9744;49.364;7.484;2023-10-31T22:51:39;7.43;;;2.88;;
19219;SDS011;9744;49.364;7.484;2023-10-31T22:54:06;10.68;;;3.20;;
19219;SDS011;9744;49.364;7.484;2023-10-31T22:56:33;10.77;;;2.88;;
19219;SDS011;9744;49.364;7.484;2023-10-31T22:59:00;19.75;;;3.63;;
19219;SDS011;9744;49.364;7.484;2023-10-31T23:01:28;10.70;;;3.20;;